createdAt,value
2023-04-18T00:00:40.137Z,27.02
2023-04-18T00:01:40.184Z,26.99
2023-04-18T00:02:40.356Z,26.99
2023-04-18T00:03:40.484Z,27.00
2023-04-18T00:04:40.357Z,27.02
2023-04-18T00:05:40.315Z,26.99
2023-04-18T00:06:40.346Z,27.00
2023-04-18T00:07:40.389Z,26.97
2023-04-18T00:08:40.438Z,26.99
2023-04-18T00:09:40.497Z,26.97
2023-04-18T00:10:40.501Z,27.00
2023-04-18T00:11:40.543Z,27.00
2023-04-18T00:12:40.569Z,26.99
2023-04-18T00:13:40.621Z,26.99
2023-04-18T00:14:40.647Z,26.97
2023-04-18T00:15:40.699Z,26.97
2023-04-18T00:16:40.803Z,26.97
2023-04-18T00:17:40.808Z,26.99
2023-04-18T00:18:40.792Z,26.97
2023-04-18T00:19:40.853Z,26.99
2023-04-18T00:20:40.888Z,27.00
2023-04-18T00:21:40.933Z,26.97
2023-04-18T00:22:40.957Z,27.00
2023-04-18T00:23:41.012Z,26.99
2023-04-18T00:24:41.037Z,26.97
2023-04-18T00:25:41.076Z,26.99
2023-04-18T00:26:41.139Z,26.99
2023-04-18T00:27:41.147Z,26.99
2023-04-18T00:28:41.199Z,26.97
2023-04-18T00:29:41.234Z,26.99
2023-04-18T00:30:41.289Z,26.97
2023-04-18T00:31:41.303Z,26.99
2023-04-18T00:32:41.395Z,26.97
2023-04-18T00:33:41.393Z,26.99
2023-04-18T00:34:41.429Z,26.99
2023-04-18T00:35:41.546Z,26.99
2023-04-18T00:36:41.501Z,26.97
2023-04-18T00:37:41.499Z,26.99
2023-04-18T00:38:41.523Z,26.97
2023-04-18T00:39:41.593Z,26.99
2023-04-18T00:40:41.612Z,26.97
2023-04-18T00:41:41.648Z,26.97
2023-04-18T00:42:41.674Z,26.97
2023-04-18T00:43:41.717Z,26.96
2023-04-18T00:44:41.754Z,26.97
2023-04-18T00:45:41.799Z,26.96
2023-04-18T00:46:41.837Z,26.96
2023-04-18T00:47:41.901Z,26.96
2023-04-18T00:48:41.881Z,26.97
2023-04-18T00:49:41.952Z,26.96
2023-04-18T00:50:41.969Z,26.96
2023-04-18T00:51:42.075Z,26.96
2023-04-18T00:52:42.071Z,26.96
2023-04-18T00:53:42.093Z,26.96
2023-04-18T00:54:42.155Z,26.97
2023-04-18T00:55:42.187Z,26.96
2023-04-18T00:56:42.200Z,26.97
2023-04-18T00:57:42.270Z,26.96
2023-04-18T00:58:42.293Z,26.96
2023-04-18T00:59:42.344Z,26.97
2023-04-18T01:00:42.351Z,26.97
2023-04-18T01:01:42.414Z,26.97
2023-04-18T01:02:42.573Z,26.96
2023-04-18T01:03:42.673Z,26.97
2023-04-18T01:04:42.740Z,26.96
2023-04-18T01:05:42.552Z,26.97
2023-04-18T01:06:42.580Z,26.99
2023-04-18T01:07:42.612Z,26.96
2023-04-18T01:08:42.653Z,26.99
2023-04-18T01:09:42.692Z,26.97
2023-04-18T01:10:42.736Z,26.99
2023-04-18T01:11:42.765Z,26.97
2023-04-18T01:12:42.807Z,26.99
2023-04-18T01:13:42.834Z,26.96
2023-04-18T01:14:42.886Z,26.97
2023-04-18T01:15:42.952Z,26.96
2023-04-18T01:16:42.966Z,26.99
2023-04-18T01:17:43.030Z,26.97
2023-04-18T01:18:43.042Z,26.96
2023-04-18T01:19:43.066Z,26.93
2023-04-18T01:20:43.124Z,26.95
2023-04-18T01:21:43.138Z,26.95
2023-04-18T01:22:43.200Z,26.95
2023-04-18T01:23:43.214Z,26.96
2023-04-18T01:24:43.264Z,26.97
2023-04-18T01:25:43.294Z,26.96
2023-04-18T01:26:43.322Z,26.96
2023-04-18T01:27:43.382Z,26.97
2023-04-18T01:28:43.394Z,26.97
2023-04-18T01:29:43.453Z,26.97
2023-04-18T01:30:43.493Z,26.96
2023-04-18T01:31:43.619Z,26.96
2023-04-18T01:32:43.602Z,26.97
2023-04-18T01:33:43.615Z,26.97
2023-04-18T01:34:43.656Z,26.95
2023-04-18T01:35:43.704Z,26.96
2023-04-18T01:36:43.740Z,26.93
2023-04-18T01:37:43.757Z,26.96
2023-04-18T01:38:43.789Z,26.96
2023-04-18T01:39:43.852Z,26.96
2023-04-18T01:40:43.873Z,26.95
2023-04-18T01:41:43.910Z,26.96
2023-04-18T01:42:43.968Z,26.97
2023-04-18T01:43:43.992Z,26.96
2023-04-18T01:44:44.041Z,26.95
2023-04-18T01:45:44.078Z,26.93
2023-04-18T01:46:44.125Z,26.95
2023-04-18T01:47:44.225Z,26.96
2023-04-18T01:48:44.188Z,26.95
2023-04-18T01:49:44.234Z,26.95
2023-04-18T01:50:44.264Z,26.97
2023-04-18T01:51:44.323Z,26.95
2023-04-18T01:52:44.368Z,26.96
2023-04-18T01:53:44.403Z,26.97
2023-04-18T01:54:44.430Z,26.95
2023-04-18T01:55:44.579Z,26.96
2023-04-18T01:56:44.513Z,26.96
2023-04-18T01:57:44.560Z,26.93
2023-04-18T01:58:44.608Z,26.96
2023-04-18T01:59:44.656Z,26.95
2023-04-18T02:00:44.721Z,26.95
2023-04-18T02:01:44.753Z,26.96
2023-04-18T02:02:44.833Z,26.96
2023-04-18T02:03:44.928Z,26.95
2023-04-18T02:04:44.824Z,26.93
2023-04-18T02:05:44.876Z,26.95
2023-04-18T02:06:44.908Z,26.97
2023-04-18T02:07:44.943Z,26.96
2023-04-18T02:08:45.011Z,26.95
2023-04-18T02:09:45.008Z,26.93
2023-04-18T02:10:45.086Z,26.95
2023-04-18T02:11:45.088Z,26.93
2023-04-18T02:12:45.111Z,26.96
2023-04-18T02:13:45.165Z,26.96
2023-04-18T02:14:45.204Z,26.96
2023-04-18T02:15:45.237Z,26.95
2023-04-18T02:16:45.380Z,26.97
2023-04-18T02:17:45.359Z,26.95
2023-04-18T02:18:45.401Z,26.95
2023-04-18T02:19:45.394Z,26.93
2023-04-18T02:20:45.442Z,26.93
2023-04-18T02:21:45.482Z,26.92
2023-04-18T02:22:45.527Z,26.95
2023-04-18T02:23:45.540Z,26.96
2023-04-18T02:24:45.578Z,26.93
2023-04-18T02:25:45.638Z,26.93
2023-04-18T02:26:45.675Z,26.96
2023-04-18T02:27:45.707Z,26.93
2023-04-18T02:28:45.718Z,26.93
2023-04-18T02:29:45.760Z,26.92
2023-04-18T02:30:45.794Z,26.93
2023-04-18T02:31:45.936Z,26.95
2023-04-18T02:32:45.916Z,26.93
2023-04-18T02:33:45.919Z,26.95
2023-04-18T02:34:45.985Z,26.95
2023-04-18T02:35:46.014Z,26.93
2023-04-18T02:36:46.060Z,26.95
2023-04-18T02:37:46.096Z,26.95
2023-04-18T02:38:46.131Z,26.92
2023-04-18T02:39:46.155Z,26.93
2023-04-18T02:40:46.185Z,26.95
2023-04-18T02:41:46.241Z,26.95
2023-04-18T02:42:46.268Z,26.96
2023-04-18T02:43:46.321Z,26.95
2023-04-18T02:44:46.344Z,26.93
2023-04-18T02:45:46.458Z,26.93
2023-04-18T02:46:46.464Z,26.95
2023-04-18T02:47:54.740Z,26.92
2023-04-18T02:48:47.468Z,26.93
2023-04-18T02:49:46.463Z,26.93
2023-04-18T02:50:46.435Z,26.96
2023-04-18T02:51:46.430Z,26.93
2023-04-18T02:52:46.441Z,26.96
2023-04-18T02:53:46.433Z,26.95
2023-04-18T02:54:46.416Z,26.93
2023-04-18T02:55:46.407Z,26.93
2023-04-18T02:56:46.402Z,26.93
2023-04-18T02:57:46.411Z,26.96
2023-04-18T02:58:46.398Z,26.95
2023-04-18T02:59:46.466Z,26.95
2023-04-18T03:00:46.456Z,26.93
2023-04-18T03:01:46.601Z,26.93
2023-04-18T03:02:46.649Z,26.93
2023-04-18T03:03:46.600Z,26.93
2023-04-18T03:04:46.642Z,26.95
2023-04-18T03:05:46.685Z,26.95
2023-04-18T03:06:46.726Z,26.93
2023-04-18T03:07:46.751Z,26.92
2023-04-18T03:08:46.809Z,26.95
2023-04-18T03:09:46.829Z,26.93
2023-04-18T03:10:46.855Z,26.95
2023-04-18T03:11:46.907Z,26.92
2023-04-18T03:12:46.960Z,26.95
2023-04-18T03:13:46.988Z,26.92
2023-04-18T03:14:47.037Z,26.93
2023-04-18T03:15:47.076Z,26.95
2023-04-18T03:16:47.106Z,26.93
2023-04-18T03:17:47.169Z,26.93
2023-04-18T03:18:47.171Z,26.92
2023-04-18T03:19:47.229Z,26.92
2023-04-18T03:20:47.266Z,26.92
2023-04-18T03:21:47.314Z,26.93
2023-04-18T03:22:47.330Z,26.92
2023-04-18T03:23:47.375Z,26.92
2023-04-18T03:24:47.472Z,26.92
2023-04-18T03:25:47.451Z,26.92
2023-04-18T03:26:47.500Z,26.95
2023-04-18T03:27:47.527Z,26.96
2023-04-18T03:28:47.562Z,26.93
2023-04-18T03:29:47.619Z,26.92
2023-04-18T03:30:47.636Z,26.93
2023-04-18T03:31:47.727Z,26.92
2023-04-18T03:32:47.753Z,26.92
2023-04-18T03:33:47.758Z,26.93
2023-04-18T03:34:47.806Z,26.93
2023-04-18T03:35:47.854Z,26.93
2023-04-18T03:36:48.312Z,26.93
2023-04-18T03:37:47.944Z,26.92
2023-04-18T03:38:47.969Z,26.92
2023-04-18T03:39:48.030Z,26.90
2023-04-18T03:40:48.068Z,26.90
2023-04-18T03:41:48.138Z,26.93
2023-04-18T03:42:48.170Z,26.90
2023-04-18T03:43:48.191Z,26.93
2023-04-18T03:44:48.225Z,26.90
2023-04-18T03:45:48.308Z,26.90
2023-04-18T03:46:48.341Z,26.92
2023-04-18T03:47:48.441Z,26.92
2023-04-18T03:48:48.427Z,26.93
2023-04-18T03:49:48.470Z,26.92
2023-04-18T03:50:48.512Z,26.90
2023-04-18T03:51:48.574Z,26.89
2023-04-18T03:52:48.575Z,26.92
2023-04-18T03:53:48.617Z,26.92
2023-04-18T03:54:48.667Z,26.90
2023-04-18T03:55:48.715Z,26.93
2023-04-18T03:56:48.848Z,26.93
2023-04-18T03:57:48.811Z,26.92
2023-04-18T03:58:48.857Z,26.92
2023-04-18T03:59:48.879Z,26.93
2023-04-18T04:00:48.924Z,26.89
2023-04-18T04:01:49.033Z,26.93
2023-04-18T04:02:49.134Z,26.93
2023-04-18T04:03:49.197Z,26.92
2023-04-18T04:04:49.170Z,26.93
2023-04-18T04:05:49.132Z,26.89
2023-04-18T04:06:49.179Z,26.92
2023-04-18T04:07:49.231Z,26.90
2023-04-18T04:08:49.279Z,26.93
2023-04-18T04:09:49.316Z,26.89
2023-04-18T04:10:49.353Z,26.92
2023-04-18T04:11:49.395Z,26.93
2023-04-18T04:12:49.470Z,26.93
2023-04-18T04:13:49.485Z,26.92
2023-04-18T04:14:49.525Z,26.90
2023-04-18T04:15:49.567Z,26.90
2023-04-18T04:16:49.763Z,26.92
2023-04-18T04:17:49.828Z,26.90
2023-04-18T04:18:49.725Z,26.92
2023-04-18T04:19:49.767Z,26.90
2023-04-18T04:20:49.799Z,26.90
2023-04-18T04:21:49.834Z,26.92
2023-04-18T04:22:49.886Z,26.90
2023-04-18T04:23:49.933Z,26.89
2023-04-18T04:24:49.975Z,26.89
2023-04-18T04:25:50.024Z,26.90
2023-04-18T04:26:50.081Z,26.92
2023-04-18T04:27:50.138Z,26.93
2023-04-18T04:28:50.159Z,26.90
2023-04-18T04:29:50.230Z,26.92
2023-04-18T04:30:50.266Z,26.90
2023-04-18T04:31:50.324Z,26.90
2023-04-18T04:32:50.406Z,26.93
2023-04-18T04:33:50.400Z,26.90
2023-04-18T04:34:50.453Z,26.92
2023-04-18T04:35:50.485Z,26.89
2023-04-18T04:36:50.527Z,26.92
2023-04-18T04:37:50.575Z,26.90
2023-04-18T04:38:50.623Z,26.92
2023-04-18T04:39:50.675Z,26.90
2023-04-18T04:40:50.710Z,26.93
2023-04-18T04:41:50.745Z,26.92
2023-04-18T04:42:50.807Z,26.92
2023-04-18T04:43:50.863Z,26.93
2023-04-18T04:44:50.958Z,26.92
2023-04-18T04:45:50.995Z,26.93
2023-04-18T04:46:50.970Z,26.90
2023-04-18T04:47:51.061Z,26.92
2023-04-18T04:48:51.064Z,26.92
2023-04-18T04:49:51.152Z,26.92
2023-04-18T04:50:51.165Z,26.92
2023-04-18T04:51:51.190Z,26.92
2023-04-18T04:52:51.230Z,26.90
2023-04-18T04:53:51.279Z,26.90
2023-04-18T04:54:51.325Z,26.90
2023-04-18T04:55:51.371Z,26.92
2023-04-18T04:56:51.438Z,26.90
2023-04-18T04:57:51.491Z,26.90
2023-04-18T04:58:51.548Z,26.93
2023-04-18T04:59:51.574Z,26.92
2023-04-18T05:00:51.645Z,26.92
2023-04-18T05:01:51.721Z,26.90
2023-04-18T05:02:51.811Z,26.92
2023-04-18T05:03:51.912Z,26.95
2023-04-18T05:04:51.819Z,26.92
2023-04-18T05:05:51.864Z,26.92
2023-04-18T05:06:51.899Z,26.93
2023-04-18T05:07:51.932Z,26.95
2023-04-18T05:08:51.987Z,26.92
2023-04-18T05:09:52.028Z,26.92
2023-04-18T05:10:52.060Z,26.93
2023-04-18T05:11:52.122Z,26.96
2023-04-18T05:12:52.172Z,26.95
2023-04-18T05:13:52.226Z,26.95
2023-04-18T05:14:52.260Z,26.95
2023-04-18T05:15:52.303Z,26.93
2023-04-18T05:16:52.350Z,26.93
2023-04-18T05:17:52.480Z,26.93
2023-04-18T05:18:52.436Z,26.95
2023-04-18T05:19:52.489Z,26.93
2023-04-18T05:20:52.546Z,26.93
2023-04-18T05:21:52.568Z,26.95
2023-04-18T05:22:52.668Z,26.93
2023-04-18T05:23:52.666Z,26.96
2023-04-18T05:24:52.692Z,26.96
2023-04-18T05:25:52.736Z,27.00
2023-04-18T05:26:52.821Z,27.00
2023-04-18T05:27:52.857Z,27.00
2023-04-18T05:28:52.877Z,27.02
2023-04-18T05:29:52.942Z,27.02
2023-04-18T05:30:53.006Z,27.00
2023-04-18T05:31:53.012Z,26.97
2023-04-18T05:32:53.104Z,26.92
2023-04-18T05:33:53.121Z,26.75
2023-04-18T05:34:53.119Z,26.66
2023-04-18T05:35:53.168Z,26.44
2023-04-18T05:36:53.203Z,26.23
2023-04-18T05:37:53.240Z,25.97
2023-04-18T05:38:53.262Z,25.57
2023-04-18T05:39:53.308Z,25.28
2023-04-18T05:40:53.305Z,25.02
2023-04-18T05:41:53.300Z,24.89
2023-04-18T05:42:53.348Z,24.81
2023-04-18T05:44:04.245Z,24.82
2023-04-18T05:44:54.407Z,24.81
2023-04-18T05:45:54.292Z,24.86
2023-04-18T05:46:53.408Z,24.92
2023-04-18T05:47:53.565Z,25.03
2023-04-18T05:48:53.504Z,25.13
2023-04-18T05:49:53.573Z,25.22
2023-04-18T05:50:53.572Z,25.34
2023-04-18T05:51:53.546Z,25.46
2023-04-18T05:52:53.638Z,25.56
2023-04-18T05:53:53.678Z,25.67
2023-04-18T05:54:54.026Z,25.80
2023-04-18T05:55:53.792Z,25.91
2023-04-18T05:56:53.763Z,26.00
2023-04-18T05:57:53.774Z,26.09
2023-04-18T05:58:53.784Z,26.17
2023-04-18T05:59:53.788Z,26.28
2023-04-18T06:00:53.790Z,26.36
2023-04-18T06:01:53.882Z,26.44
2023-04-18T06:02:54.210Z,26.49
2023-04-18T06:03:54.207Z,26.56
2023-04-18T06:04:54.178Z,26.62
2023-04-18T06:05:54.142Z,26.69
2023-04-18T06:06:54.101Z,26.71
2023-04-18T06:07:54.161Z,26.79
2023-04-18T06:08:54.200Z,26.85
2023-04-18T06:09:54.228Z,26.90
2023-04-18T06:10:54.273Z,26.93
2023-04-18T06:11:54.288Z,26.97
2023-04-18T06:12:54.316Z,27.02
2023-04-18T06:13:54.486Z,27.05
2023-04-18T06:14:54.413Z,27.10
2023-04-18T06:15:54.475Z,27.10
2023-04-18T06:16:54.450Z,27.14
2023-04-18T06:17:54.469Z,27.19
2023-04-18T06:18:54.460Z,27.22
2023-04-18T06:19:54.506Z,27.22
2023-04-18T06:20:54.521Z,27.26
2023-04-18T06:21:54.529Z,27.29
2023-04-18T06:22:54.545Z,27.33
2023-04-18T06:23:54.575Z,27.32
2023-04-18T06:24:54.582Z,27.37
2023-04-18T06:25:54.602Z,27.39
2023-04-18T06:26:54.648Z,27.39
2023-04-18T06:27:54.641Z,27.40
2023-04-18T06:28:54.686Z,27.44
2023-04-18T06:29:54.690Z,27.47
2023-04-18T06:30:54.703Z,27.47
2023-04-18T06:31:54.769Z,27.46
2023-04-18T06:32:54.758Z,27.49
2023-04-18T06:33:54.764Z,27.46
2023-04-18T06:34:54.785Z,27.40
2023-04-18T06:35:54.813Z,27.32
2023-04-18T06:36:54.882Z,27.22
2023-04-18T06:37:54.943Z,27.14
2023-04-18T06:38:54.973Z,27.10
2023-04-18T06:39:55.057Z,27.07
2023-04-18T06:40:55.091Z,27.05
2023-04-18T06:41:55.177Z,27.06
2023-04-18T06:42:55.216Z,27.03
2023-04-18T06:44:03.612Z,27.03
2023-04-18T06:44:56.510Z,27.06
2023-04-18T06:45:55.256Z,27.06
2023-04-18T06:46:55.253Z,27.11
2023-04-18T06:47:55.280Z,27.06
2023-04-18T06:48:55.285Z,27.07
2023-04-18T06:49:55.223Z,27.14
2023-04-18T06:50:55.208Z,27.14
2023-04-18T06:51:55.202Z,27.22
2023-04-18T06:52:55.210Z,27.22
2023-04-18T06:53:55.201Z,27.26
2023-04-18T06:54:55.187Z,27.32
2023-04-18T06:55:55.194Z,27.29
2023-04-18T06:56:55.153Z,27.30
2023-04-18T06:57:55.166Z,27.32
2023-04-18T06:58:55.512Z,27.30
2023-04-18T06:59:55.176Z,27.27
2023-04-18T07:00:55.196Z,27.26
2023-04-18T07:01:55.236Z,27.22
2023-04-18T07:02:55.337Z,27.19
2023-04-18T07:03:55.605Z,27.19
2023-04-18T07:04:55.335Z,27.16
2023-04-18T07:05:55.366Z,27.14
2023-04-18T07:06:55.430Z,27.09
2023-04-18T07:07:55.554Z,27.07
2023-04-18T07:08:55.569Z,27.06
2023-04-18T07:09:55.558Z,27.05
2023-04-18T07:10:55.625Z,27.05
2023-04-18T07:11:55.726Z,27.03
2023-04-18T07:12:55.765Z,26.97
2023-04-18T07:13:55.801Z,26.92
2023-04-18T07:14:55.806Z,26.93
2023-04-18T07:15:55.842Z,26.87
2023-04-18T07:16:55.849Z,26.89
2023-04-18T07:17:55.937Z,26.85
2023-04-18T07:18:55.879Z,26.83
2023-04-18T07:19:55.885Z,26.81
2023-04-18T07:20:55.866Z,26.81
2023-04-18T07:21:55.865Z,26.78
2023-04-18T07:22:55.892Z,26.79
2023-04-18T07:23:55.908Z,26.79
2023-04-18T07:24:55.918Z,26.78
2023-04-18T07:25:55.938Z,26.78
2023-04-18T07:26:55.945Z,26.71
2023-04-18T07:27:55.936Z,26.69
2023-04-18T07:28:55.951Z,26.46
2023-04-18T07:29:55.986Z,26.42
2023-04-18T07:30:56.522Z,26.31
2023-04-18T07:31:56.098Z,26.27
2023-04-18T07:32:56.078Z,26.20
2023-04-18T07:33:56.513Z,26.20
2023-04-18T07:34:56.075Z,26.30
2023-04-18T07:35:56.514Z,26.31
2023-04-18T07:36:56.165Z,26.32
2023-04-18T07:37:56.208Z,26.41
2023-04-18T07:38:56.236Z,26.45
2023-04-18T07:39:56.248Z,26.55
2023-04-18T07:40:56.546Z,26.66
2023-04-18T07:41:56.302Z,26.78
2023-04-18T07:42:56.358Z,26.85
2023-04-18T07:43:56.540Z,26.89
2023-04-18T07:44:56.446Z,27.05
2023-04-18T07:45:56.534Z,27.16
2023-04-18T07:46:56.495Z,27.25
2023-04-18T07:47:56.538Z,27.33
2023-04-18T07:48:57.047Z,27.44
2023-04-18T07:49:56.558Z,27.49
2023-04-18T07:50:56.568Z,27.57
2023-04-18T07:51:56.602Z,27.68
2023-04-18T07:52:56.582Z,27.70
2023-04-18T07:53:56.617Z,27.81
2023-04-18T07:54:56.632Z,27.87
2023-04-18T07:55:56.665Z,27.92
2023-04-18T07:56:56.692Z,27.98
2023-04-18T07:57:56.760Z,28.05
2023-04-18T07:58:56.851Z,28.00
2023-04-18T07:59:56.870Z,27.94
2023-04-18T08:00:56.911Z,27.95
2023-04-18T08:01:56.972Z,27.98
2023-04-18T08:02:57.104Z,28.00
2023-04-18T08:03:57.142Z,27.98
2023-04-18T08:04:57.268Z,27.98
2023-04-18T08:05:57.158Z,27.98
2023-04-18T08:06:57.228Z,28.00
2023-04-18T08:07:57.269Z,27.98
2023-04-18T08:08:57.317Z,28.01
2023-04-18T08:09:57.386Z,28.02
2023-04-18T08:10:57.467Z,28.05
2023-04-18T08:11:57.527Z,28.04
2023-04-18T08:12:57.554Z,28.05
2023-04-18T08:13:57.608Z,28.08
2023-04-18T08:14:58.037Z,28.07
2023-04-18T08:15:57.795Z,28.11
2023-04-18T08:16:57.794Z,28.09
2023-04-18T08:17:57.881Z,28.08
2023-04-18T08:18:57.943Z,28.09
2023-04-18T08:19:58.027Z,28.11
2023-04-18T08:20:58.045Z,28.12
2023-04-18T08:21:58.077Z,28.16
2023-04-18T08:23:07.577Z,28.12
2023-04-18T08:23:59.101Z,28.13
2023-04-18T08:25:04.908Z,28.12
2023-04-18T08:25:59.085Z,28.11
2023-04-18T08:26:58.086Z,28.09
2023-04-18T08:27:58.122Z,28.08
2023-04-18T08:28:58.155Z,28.09
2023-04-18T08:29:58.543Z,28.04
2023-04-18T08:30:58.266Z,28.02
2023-04-18T08:31:58.363Z,28.00
2023-04-18T08:32:58.447Z,27.98
2023-04-18T08:33:58.428Z,27.98
2023-04-18T08:34:58.536Z,27.95
2023-04-18T08:35:58.551Z,27.77
2023-04-18T08:36:58.623Z,27.85
2023-04-18T08:37:58.668Z,27.87
2023-04-18T08:38:58.681Z,27.88
2023-04-18T08:39:58.716Z,27.90
2023-04-18T08:40:58.751Z,27.92
2023-04-18T08:41:58.783Z,27.91
2023-04-18T08:42:58.829Z,27.92
2023-04-18T08:43:58.855Z,27.92
2023-04-18T08:44:58.900Z,27.91
2023-04-18T08:45:58.942Z,27.88
2023-04-18T08:46:58.919Z,27.88
2023-04-18T08:47:58.967Z,27.87
2023-04-18T08:48:58.964Z,27.84
2023-04-18T08:49:58.965Z,27.84
2023-04-18T08:50:58.977Z,27.83
2023-04-18T08:51:59.101Z,27.81
2023-04-18T08:52:58.961Z,27.78
2023-04-18T08:53:58.945Z,27.77
2023-04-18T08:54:58.954Z,27.74
2023-04-18T08:55:59.051Z,27.71
2023-04-18T08:56:58.973Z,27.71
2023-04-18T08:57:58.976Z,27.67
2023-04-18T08:58:59.005Z,27.65
2023-04-18T08:59:58.997Z,27.67
2023-04-18T09:00:59.123Z,27.65
2023-04-18T09:01:59.287Z,27.61
2023-04-18T09:02:59.231Z,27.62
2023-04-18T09:03:59.160Z,27.60
2023-04-18T09:04:59.140Z,27.61
2023-04-18T09:05:59.547Z,27.58
2023-04-18T09:06:59.155Z,27.60
2023-04-18T09:07:59.165Z,27.57
2023-04-18T09:08:59.383Z,27.56
2023-04-18T09:09:59.205Z,27.54
2023-04-18T09:10:59.254Z,27.57
2023-04-18T09:11:59.228Z,27.57
2023-04-18T09:12:59.239Z,27.56
2023-04-18T09:13:59.324Z,27.56
2023-04-18T09:14:59.287Z,27.53
2023-04-18T09:15:59.575Z,27.54
2023-04-18T09:16:59.453Z,27.51
2023-04-18T09:17:59.394Z,27.51
2023-04-18T09:18:59.376Z,27.53
2023-04-18T09:19:59.444Z,27.56
2023-04-18T09:20:59.457Z,27.51
2023-04-18T09:21:59.428Z,27.49
2023-04-18T09:22:59.445Z,27.54
2023-04-18T09:23:59.458Z,27.56
2023-04-18T09:24:59.592Z,27.58
2023-04-18T09:25:59.532Z,27.60
2023-04-18T09:26:59.516Z,27.64
2023-04-18T09:27:59.487Z,27.67
2023-04-18T09:28:59.469Z,27.71
2023-04-18T09:29:59.579Z,27.74
2023-04-18T09:30:59.539Z,27.75
2023-04-18T09:31:59.522Z,27.80
2023-04-18T09:32:59.674Z,27.83
2023-04-18T09:33:59.577Z,27.88
2023-04-18T09:35:01.372Z,27.88
2023-04-18T09:36:00.079Z,27.91
2023-04-18T09:36:59.671Z,27.92
2023-04-18T09:37:59.614Z,27.95
2023-04-18T09:38:59.600Z,28.00
2023-04-18T09:39:59.698Z,28.01
2023-04-18T09:40:59.595Z,28.07
2023-04-18T09:41:59.576Z,28.07
2023-04-18T09:42:59.561Z,28.08
2023-04-18T09:43:59.554Z,28.07
2023-04-18T09:44:59.583Z,28.07
2023-04-18T09:45:59.591Z,28.07
2023-04-18T09:46:59.567Z,27.98
2023-04-18T09:47:59.605Z,27.97
2023-04-18T09:48:59.533Z,27.94
2023-04-18T09:49:59.540Z,27.94
2023-04-18T09:50:59.533Z,27.92
2023-04-18T09:51:59.573Z,27.92
2023-04-18T09:52:59.501Z,27.91
2023-04-18T09:53:59.511Z,27.97
2023-04-18T09:54:59.508Z,27.95
2023-04-18T09:55:59.539Z,27.95
2023-04-18T09:56:59.477Z,27.98
2023-04-18T09:57:59.478Z,27.95
2023-04-18T09:58:59.461Z,27.91
2023-04-18T09:59:59.462Z,27.92
2023-04-18T10:00:59.585Z,27.92
2023-04-18T10:01:59.640Z,27.94
2023-04-18T10:02:59.542Z,27.92
2023-04-18T10:03:59.601Z,27.92
2023-04-18T10:04:59.505Z,27.91
2023-04-18T10:05:59.434Z,27.92
2023-04-18T10:06:59.403Z,27.92
2023-04-18T10:07:59.472Z,27.91
2023-04-18T10:08:59.510Z,27.88
2023-04-18T10:09:59.560Z,27.90
2023-04-18T10:10:59.638Z,27.85
2023-04-18T10:11:59.740Z,27.85
2023-04-18T10:12:59.686Z,27.85
2023-04-18T10:13:59.716Z,27.84
2023-04-18T10:14:59.793Z,27.87
2023-04-18T10:15:59.849Z,27.85
2023-04-18T10:16:59.855Z,27.84
2023-04-18T10:18:05.082Z,27.83
2023-04-18T10:19:01.267Z,27.84
2023-04-18T10:19:59.887Z,27.85
2023-04-18T10:20:59.865Z,27.81
2023-04-18T10:22:00.091Z,27.83
2023-04-18T10:22:59.891Z,27.85
2023-04-18T10:23:59.864Z,27.83
2023-04-18T10:24:59.849Z,27.74
2023-04-18T10:25:59.850Z,27.77
2023-04-18T10:27:00.107Z,27.68
2023-04-18T10:27:59.848Z,27.58
2023-04-18T10:28:59.828Z,27.53
2023-04-18T10:29:59.807Z,27.40
2023-04-18T10:30:59.828Z,27.36
2023-04-18T10:32:00.043Z,27.25
2023-04-18T10:32:59.858Z,27.13
2023-04-18T10:34:05.417Z,27.10
2023-04-18T10:35:00.760Z,27.05
2023-04-18T10:36:00.119Z,27.03
2023-04-18T10:36:59.748Z,26.96
2023-04-18T10:37:59.758Z,26.87
2023-04-18T10:38:59.755Z,26.82
2023-04-18T10:39:59.733Z,26.75
2023-04-18T10:41:00.126Z,26.79
2023-04-18T10:41:59.725Z,26.78
2023-04-18T10:42:59.730Z,26.78
2023-04-18T10:43:59.732Z,26.74
2023-04-18T10:44:59.681Z,26.58
2023-04-18T10:45:59.680Z,26.62
2023-04-18T10:46:59.735Z,26.55
2023-04-18T10:47:59.711Z,26.58
2023-04-18T10:48:59.701Z,26.62
2023-04-18T10:49:59.730Z,26.63
2023-04-18T10:50:59.722Z,26.63
2023-04-18T10:51:59.728Z,26.68
2023-04-18T10:52:59.784Z,26.71
2023-04-18T10:53:59.857Z,26.76
2023-04-18T10:54:59.915Z,26.79
2023-04-18T10:55:59.982Z,26.82
2023-04-18T10:57:00.024Z,26.87
2023-04-18T10:58:00.064Z,26.89
2023-04-18T10:59:00.106Z,26.92
2023-04-18T11:00:00.182Z,26.93
2023-04-18T11:01:00.282Z,26.97
2023-04-18T11:02:00.256Z,27.03
2023-04-18T11:03:00.477Z,27.05
2023-04-18T11:04:00.465Z,27.06
2023-04-18T11:05:00.297Z,27.11
2023-04-18T11:06:00.310Z,27.14
2023-04-18T11:07:00.342Z,27.16
2023-04-18T11:08:00.369Z,27.19
2023-04-18T11:09:00.392Z,27.16
2023-04-18T11:10:00.446Z,27.20
2023-04-18T11:11:00.596Z,27.20
2023-04-18T11:12:00.613Z,27.22
2023-04-18T11:13:00.499Z,27.22
2023-04-18T11:14:00.498Z,27.26
2023-04-18T11:15:00.525Z,27.26
2023-04-18T11:16:00.646Z,27.27
2023-04-18T11:17:00.610Z,27.32
2023-04-18T11:18:00.656Z,27.30
2023-04-18T11:19:00.621Z,27.34
2023-04-18T11:20:00.675Z,27.37
2023-04-18T11:21:00.671Z,27.39
2023-04-18T11:22:01.112Z,27.40
2023-04-18T11:23:00.702Z,27.40
2023-04-18T11:24:00.726Z,27.41
2023-04-18T11:25:00.780Z,27.39
2023-04-18T11:26:00.769Z,27.43
2023-04-18T11:27:00.802Z,27.43
2023-04-18T11:28:00.875Z,27.43
2023-04-18T11:29:00.859Z,27.43
2023-04-18T11:30:00.879Z,27.44
2023-04-18T11:31:00.876Z,27.44
2023-04-18T11:32:00.908Z,27.44
2023-04-18T11:33:00.924Z,27.47
2023-04-18T11:34:00.929Z,27.49
2023-04-18T11:35:00.950Z,27.49
2023-04-18T11:36:00.977Z,27.49
2023-04-18T11:37:01.025Z,27.51
2023-04-18T11:38:01.025Z,27.50
2023-04-18T11:39:01.037Z,27.50
2023-04-18T11:40:01.029Z,27.51
2023-04-18T11:41:01.041Z,27.50
2023-04-18T11:42:01.080Z,27.47
2023-04-18T11:43:01.082Z,27.47
2023-04-18T11:44:01.181Z,27.46
2023-04-18T11:45:01.080Z,27.50
2023-04-18T11:46:01.237Z,27.49
2023-04-18T11:47:01.214Z,27.49
2023-04-18T11:48:01.274Z,27.50
2023-04-18T11:49:01.218Z,27.47
2023-04-18T11:50:01.249Z,27.47
2023-04-18T11:51:01.244Z,27.50
2023-04-18T11:52:01.302Z,27.47
2023-04-18T11:53:01.318Z,27.49
2023-04-18T11:54:01.350Z,27.49
2023-04-18T11:55:01.350Z,27.47
2023-04-18T11:56:01.369Z,27.47
2023-04-18T11:57:01.386Z,27.47
2023-04-18T11:58:01.409Z,27.47
2023-04-18T11:59:01.463Z,27.44
2023-04-18T12:00:01.376Z,27.47
2023-04-18T12:01:01.431Z,27.47
2023-04-18T12:02:12.562Z,27.47
2023-04-18T12:03:02.585Z,27.49
2023-04-18T12:04:01.695Z,27.53
2023-04-18T12:05:01.603Z,27.58
2023-04-18T12:06:01.531Z,27.60
2023-04-18T12:07:01.377Z,27.58
2023-04-18T12:08:01.392Z,27.57
2023-04-18T12:09:01.376Z,27.54
2023-04-18T12:10:01.358Z,27.50
2023-04-18T12:11:01.357Z,27.50
2023-04-18T12:12:01.350Z,27.50
2023-04-18T12:13:01.337Z,27.49
2023-04-18T12:14:02.996Z,27.44
2023-04-18T12:15:01.321Z,27.49
2023-04-18T12:16:01.359Z,27.49
2023-04-18T12:17:01.305Z,27.44
2023-04-18T12:18:01.433Z,27.50
2023-04-18T12:19:01.298Z,27.49
2023-04-18T12:20:01.282Z,27.54
2023-04-18T12:21:01.279Z,27.53
2023-04-18T12:22:01.651Z,27.56
2023-04-18T12:23:01.280Z,27.53
2023-04-18T12:24:01.262Z,27.57
2023-04-18T12:25:01.258Z,27.58
2023-04-18T12:26:01.275Z,27.60
2023-04-18T12:27:01.247Z,27.58
2023-04-18T12:28:01.255Z,27.62
2023-04-18T12:29:01.247Z,27.64
2023-04-18T12:30:01.217Z,27.67
2023-04-18T12:31:01.265Z,27.70
2023-04-18T12:32:01.308Z,27.71
2023-04-18T12:33:01.276Z,27.74
2023-04-18T12:34:01.173Z,27.75
2023-04-18T12:35:01.193Z,27.80
2023-04-18T12:36:01.170Z,27.80
2023-04-18T12:37:01.649Z,27.83
2023-04-18T12:38:01.160Z,27.81
2023-04-18T12:39:01.139Z,27.87
2023-04-18T12:40:01.161Z,27.85
2023-04-18T12:41:01.173Z,27.88
2023-04-18T12:42:01.138Z,27.88
2023-04-18T12:43:03.440Z,27.90
2023-04-18T12:44:01.099Z,27.91
2023-04-18T12:45:01.096Z,27.90
2023-04-18T12:46:01.094Z,27.92
2023-04-18T12:47:01.115Z,27.91
2023-04-18T12:48:01.169Z,27.94
2023-04-18T12:49:01.093Z,27.95
2023-04-18T12:50:01.064Z,27.98
2023-04-18T12:51:01.072Z,27.98
2023-04-18T12:52:01.091Z,27.98
2023-04-18T12:53:01.057Z,28.00